sensor_id;sensor_type;location;lat;lon;timestamp;pressure;altitude;pressure_sealevel;temperature;humidity
73981;BME280;62348;51.412;5.436;2023-02-28T00:00:10;102921.06;;;0.22;72.07
73981;BME280;62348;51.412;5.436;2023-02-28T00:02:37;102923.59;;;0.24;71.56
73981;BME280;62348;51.412;5.436;2023-02-28T00:05:04;102915.59;;;0.24;72.07
73981;BME280;62348;51.412;5.436;2023-02-28T00:07:31;102914.22;;;0.19;72.29
73981;BME280;62348;51.412;5.436;2023-02-28T00:09:56;102923.84;;;0.21;72.45
73981;BME280;62348;51.412;5.436;2023-02-28T00:12:22;102918.53;;;0.21;72.17
73981;BME280;62348;51.412;5.436;2023-02-28T00:14:48;102918.69;;;0.19;72.21
73981;BME280;62348;51.412;5.436;2023-02-28T00:17:13;102924.84;;;0.19;72.17
73981;BME280;62348;51.412;5.436;2023-02-28T00:19:39;102919.66;;;0.18;72.11
73981;BME280;62348;51.412;5.436;2023-02-28T00:22:04;102923.47;;;0.15;72.15
73981;BME280;62348;51.412;5.436;2023-02-28T00:24:30;102920.81;;;0.15;72.29
73981;BME280;62348;51.412;5.436;2023-02-28T00:26:56;102914.47;;;0.16;72.32
73981;BME280;62348;51.412;5.436;2023-02-28T00:29:21;102916.72;;;0.11;72.76
73981;BME280;62348;51.412;5.436;2023-02-28T00:31:47;102923.16;;;0.09;72.17
73981;BME280;62348;51.412;5.436;2023-02-28T00:34:12;102916.31;;;0.06;72.27
73981;BME280;62348;51.412;5.436;2023-02-28T00:36:37;102920.94;;;0.04;72.33
73981;BME280;62348;51.412;5.436;2023-02-28T00:39:03;102917.41;;;0.04;72.67
73981;BME280;62348;51.412;5.436;2023-02-28T00:41:28;102916.88;;;0.00;73.17
73981;BME280;62348;51.412;5.436;2023-02-28T00:43:54;102924.88;;;0.00;72.78
73981;BME280;62348;51.412;5.436;2023-02-28T00:46:19;102925.00;;;-0.02;72.64
73981;BME280;62348;51.412;5.436;2023-02-28T00:48:44;102926.97;;;-0.04;72.89
73981;BME280;62348;51.412;5.436;2023-02-28T00:51:10;102920.94;;;-0.06;72.95
73981;BME280;62348;51.412;5.436;2023-02-28T00:53:35;102923.75;;;-0.07;73.19
73981;BME280;62348;51.412;5.436;2023-02-28T00:56:01;102924.69;;;-0.08;73.19
73981;BME280;62348;51.412;5.436;2023-02-28T00:58:26;102930.03;;;-0.08;73.40
73981;BME280;62348;51.412;5.436;2023-02-28T01:00:52;102921.47;;;-0.12;73.41
73981;BME280;62348;51.412;5.436;2023-02-28T01:03:19;102925.25;;;-0.14;73.27
73981;BME280;62348;51.412;5.436;2023-02-28T01:05:45;102924.56;;;-0.16;73.54
73981;BME280;62348;51.412;5.436;2023-02-28T01:08:11;102929.19;;;-0.18;73.67
73981;BME280;62348;51.412;5.436;2023-02-28T01:10:37;102929.44;;;-0.22;73.64
73981;BME280;62348;51.412;5.436;2023-02-28T01:13:03;102932.25;;;-0.23;73.90
73981;BME280;62348;51.412;5.436;2023-02-28T01:15:28;102932.25;;;-0.23;73.60
73981;BME280;62348;51.412;5.436;2023-02-28T01:17:54;102935.19;;;-0.26;73.83
73981;BME280;62348;51.412;5.436;2023-02-28T01:20:19;102930.72;;;-0.26;73.94
73981;BME280;62348;51.412;5.436;2023-02-28T01:22:45;102932.09;;;-0.31;74.09
73981;BME280;62348;51.412;5.436;2023-02-28T01:25:14;102932.09;;;-0.31;73.97
73981;BME280;62348;51.412;5.436;2023-02-28T01:27:40;102928.59;;;-0.32;74.18
73981;BME280;62348;51.412;5.436;2023-02-28T01:30:07;102946.50;;;-0.34;73.98
73981;BME280;62348;51.412;5.436;2023-02-28T01:32:33;102938.38;;;-0.32;74.50
73981;BME280;62348;51.412;5.436;2023-02-28T01:34:58;102942.88;;;-0.33;73.99
73981;BME280;62348;51.412;5.436;2023-02-28T01:37:24;102937.84;;;-0.36;74.37
73981;BME280;62348;51.412;5.436;2023-02-28T01:39:49;102936.72;;;-0.33;74.74
73981;BME280;62348;51.412;5.436;2023-02-28T01:42:15;102935.19;;;-0.36;74.71
73981;BME280;62348;51.412;5.436;2023-02-28T01:47:43;102931.13;;;-0.30;73.24
73981;BME280;62348;51.412;5.436;2023-02-28T01:50:21;102927.22;;;-0.36;74.28
73981;BME280;62348;51.412;5.436;2023-02-28T01:52:48;102929.44;;;-0.41;74.42
73981;BME280;62348;51.412;5.436;2023-02-28T01:55:16;102924.94;;;-0.41;74.58
73981;BME280;62348;51.412;5.436;2023-02-28T01:57:48;102924.94;;;-0.41;74.39
73981;BME280;62348;51.412;5.436;2023-02-28T02:00:18;102919.91;;;-0.44;74.66
73981;BME280;62348;51.412;5.436;2023-02-28T02:02:47;102913.59;;;-0.43;74.46
73981;BME280;62348;51.412;5.436;2023-02-28T02:05:26;102909.28;;;-0.44;74.96
73981;BME280;62348;51.412;5.436;2023-02-28T02:08:03;102910.00;;;-0.42;74.68
73981;BME280;62348;51.412;5.436;2023-02-28T02:10:33;102906.47;;;-0.42;75.01
73981;BME280;62348;51.412;5.436;2023-02-28T02:16:00;102897.91;;;-0.46;74.97
73981;BME280;62348;51.412;5.436;2023-02-28T02:18:39;102902.41;;;-0.46;75.40
73981;BME280;62348;51.412;5.436;2023-02-28T02:32:47;102887.72;;;-0.50;75.55
73981;BME280;62348;51.412;5.436;2023-02-28T02:35:18;102889.13;;;-0.46;74.14
73981;BME280;62348;51.412;5.436;2023-02-28T02:38:11;102886.03;;;-0.51;74.96
73981;BME280;62348;51.412;5.436;2023-02-28T02:43:24;102888.16;;;-0.55;75.20
73981;BME280;62348;51.412;5.436;2023-02-28T02:46:01;102889.38;;;-0.59;75.47
73981;BME280;62348;51.412;5.436;2023-02-28T02:48:33;102894.97;;;-0.62;75.25
73981;BME280;62348;51.412;5.436;2023-02-28T02:51:01;102882.53;;;-0.62;75.39
73981;BME280;62348;51.412;5.436;2023-02-28T02:53:38;102884.47;;;-0.64;75.45
73981;BME280;62348;51.412;5.436;2023-02-28T02:56:07;102892.72;;;-0.67;75.73
73981;BME280;62348;51.412;5.436;2023-02-28T02:58:36;102899.84;;;-0.67;75.95
73981;BME280;62348;51.412;5.436;2023-02-28T03:01:08;102894.78;;;-0.70;75.75
73981;BME280;62348;51.412;5.436;2023-02-28T03:03:36;102896.63;;;-0.71;75.47
73981;BME280;62348;51.412;5.436;2023-02-28T03:06:02;102897.59;;;-0.72;75.83
73981;BME280;62348;51.412;5.436;2023-02-28T03:08:34;102895.91;;;-0.73;75.74
73981;BME280;62348;51.412;5.436;2023-02-28T03:11:05;102898.69;;;-0.74;75.87
73981;BME280;62348;51.412;5.436;2023-02-28T03:16:19;102890.06;;;-0.67;74.62
73981;BME280;62348;51.412;5.436;2023-02-28T03:26:58;102894.78;;;-0.70;75.40
73981;BME280;62348;51.412;5.436;2023-02-28T03:29:40;102895.38;;;-0.67;75.59
73981;BME280;62348;51.412;5.436;2023-02-28T03:32:16;102889.91;;;-0.65;76.09
73981;BME280;62348;51.412;5.436;2023-02-28T03:37:22;102883.34;;;-0.61;74.88
73981;BME280;62348;51.412;5.436;2023-02-28T03:39:54;102892.03;;;-0.59;75.36
73981;BME280;62348;51.412;5.436;2023-02-28T03:42:27;102890.06;;;-0.57;75.67
73981;BME280;62348;51.412;5.436;2023-02-28T03:45:04;102888.84;;;-0.53;75.71
73981;BME280;62348;51.412;5.436;2023-02-28T03:47:37;102898.78;;;-0.55;75.14
73981;BME280;62348;51.412;5.436;2023-02-28T03:50:12;102900.31;;;-0.52;75.28
73981;BME280;62348;51.412;5.436;2023-02-28T03:52:59;102897.66;;;-0.52;75.41
73981;BME280;62348;51.412;5.436;2023-02-28T03:55:28;102888.56;;;-0.50;75.31
73981;BME280;62348;51.412;5.436;2023-02-28T03:58:03;102896.53;;;-0.50;75.54
73981;BME280;62348;51.412;5.436;2023-02-28T04:00:34;102901.97;;;-0.51;75.46
73981;BME280;62348;51.412;5.436;2023-02-28T04:03:01;102903.66;;;-0.50;75.07
73981;BME280;62348;51.412;5.436;2023-02-28T04:05:27;102905.34;;;-0.49;74.91
73981;BME280;62348;51.412;5.436;2023-02-28T04:07:53;102902.53;;;-0.48;75.51
73981;BME280;62348;51.412;5.436;2023-02-28T04:10:19;102897.09;;;-0.46;75.02
73981;BME280;62348;51.412;5.436;2023-02-28T04:12:45;102902.16;;;-0.43;74.71
73981;BME280;62348;51.412;5.436;2023-02-28T04:15:10;102903.69;;;-0.41;75.20
73981;BME280;62348;51.412;5.436;2023-02-28T04:17:36;102903.53;;;-0.39;75.43
73981;BME280;62348;51.412;5.436;2023-02-28T04:20:02;102906.91;;;-0.37;75.16
73981;BME280;62348;51.412;5.436;2023-02-28T04:22:28;102893.47;;;-0.35;75.16
73981;BME280;62348;51.412;5.436;2023-02-28T04:24:54;102896.97;;;-0.35;74.76
73981;BME280;62348;51.412;5.436;2023-02-28T04:27:20;102904.13;;;-0.35;75.17
73981;BME280;62348;51.412;5.436;2023-02-28T04:29:46;102904.69;;;-0.32;75.15
73981;BME280;62348;51.412;5.436;2023-02-28T04:32:11;102910.97;;;-0.33;74.73
73981;BME280;62348;51.412;5.436;2023-02-28T04:34:37;102905.50;;;-0.31;75.18
73981;BME280;62348;51.412;5.436;2023-02-28T04:37:04;102908.03;;;-0.30;75.02
73981;BME280;62348;51.412;5.436;2023-02-28T04:39:29;102907.91;;;-0.28;74.95
73981;BME280;62348;51.412;5.436;2023-02-28T04:41:55;102907.03;;;-0.29;75.09
73981;BME280;62348;51.412;5.436;2023-02-28T04:44:21;102907.91;;;-0.28;74.87
73981;BME280;62348;51.412;5.436;2023-02-28T04:46:47;102917.28;;;-0.24;75.50
73981;BME280;62348;51.412;5.436;2023-02-28T04:49:14;102915.47;;;-0.24;75.04
73981;BME280;62348;51.412;5.436;2023-02-28T04:51:40;102907.34;;;-0.22;75.42
73981;BME280;62348;51.412;5.436;2023-02-28T04:54:06;102904.69;;;-0.22;74.89
73981;BME280;62348;51.412;5.436;2023-02-28T04:56:32;102918.69;;;-0.20;74.87
73981;BME280;62348;51.412;5.436;2023-02-28T04:58:57;102919.50;;;-0.20;74.82
73981;BME280;62348;51.412;5.436;2023-02-28T05:01:27;102906.22;;;-0.20;75.81
73981;BME280;62348;51.412;5.436;2023-02-28T05:03:54;102915.75;;;-0.17;75.54
73981;BME280;62348;51.412;5.436;2023-02-28T05:06:21;102914.88;;;-0.17;74.93
73981;BME280;62348;51.412;5.436;2023-02-28T05:08:48;102912.09;;;-0.16;74.79
73981;BME280;62348;51.412;5.436;2023-02-28T05:13:47;102911.84;;;-0.13;75.43
73981;BME280;62348;51.412;5.436;2023-02-28T05:16:13;102916.84;;;-0.10;74.59
73981;BME280;62348;51.412;5.436;2023-02-28T05:18:38;102916.16;;;-0.12;74.18
73981;BME280;62348;51.412;5.436;2023-02-28T05:21:04;102923.16;;;-0.11;74.05
73981;BME280;62348;51.412;5.436;2023-02-28T05:23:29;102918.81;;;-0.12;74.36
73981;BME280;62348;51.412;5.436;2023-02-28T05:25:55;102921.34;;;-0.10;75.12
73981;BME280;62348;51.412;5.436;2023-02-28T05:28:21;102929.19;;;-0.09;74.47
73981;BME280;62348;51.412;5.436;2023-02-28T05:30:47;102930.03;;;-0.08;74.34
73981;BME280;62348;51.412;5.436;2023-02-28T05:33:13;102930.72;;;-0.06;74.09
73981;BME280;62348;51.412;5.436;2023-02-28T05:35:40;102928.19;;;-0.08;74.07
73981;BME280;62348;51.412;5.436;2023-02-28T05:38:05;102928.91;;;-0.06;74.72
73981;BME280;62348;51.412;5.436;2023-02-28T05:40:31;102935.06;;;-0.05;75.04
73981;BME280;62348;51.412;5.436;2023-02-28T05:42:56;102935.06;;;-0.05;74.12
73981;BME280;62348;51.412;5.436;2023-02-28T05:45:21;102942.22;;;-0.06;75.10
73981;BME280;62348;51.412;5.436;2023-02-28T05:47:47;102932.41;;;-0.05;74.28
73981;BME280;62348;51.412;5.436;2023-02-28T05:50:12;102931.41;;;-0.04;74.73
73981;BME280;62348;51.412;5.436;2023-02-28T05:52:37;102933.38;;;-0.06;74.29
73981;BME280;62348;51.412;5.436;2023-02-28T05:55:06;102931.59;;;-0.06;75.37
73981;BME280;62348;51.412;5.436;2023-02-28T05:57:31;102936.03;;;-0.06;74.82
73981;BME280;62348;51.412;5.436;2023-02-28T05:59:57;102933.25;;;-0.05;74.98
73981;BME280;62348;51.412;5.436;2023-02-28T06:02:22;102928.91;;;-0.06;74.27
73981;BME280;62348;51.412;5.436;2023-02-28T06:04:47;102932.41;;;-0.05;74.90
73981;BME280;62348;51.412;5.436;2023-02-28T06:07:13;102931.41;;;-0.04;74.24
73981;BME280;62348;51.412;5.436;2023-02-28T06:09:38;102938.69;;;-0.06;74.43
73981;BME280;62348;51.412;5.436;2023-02-28T06:12:06;102931.41;;;-0.04;73.70
73981;BME280;62348;51.412;5.436;2023-02-28T06:14:33;102939.69;;;-0.07;74.96
73981;BME280;62348;51.412;5.436;2023-02-28T06:16:59;102943.88;;;-0.05;74.31
73981;BME280;62348;51.412;5.436;2023-02-28T06:19:25;102938.56;;;-0.05;75.13
73981;BME280;62348;51.412;5.436;2023-02-28T06:21:51;102940.25;;;-0.04;74.06
73981;BME280;62348;51.412;5.436;2023-02-28T06:24:18;102945.72;;;-0.05;74.49
73981;BME280;62348;51.412;5.436;2023-02-28T06:26:44;102938.56;;;-0.05;74.23
73981;BME280;62348;51.412;5.436;2023-02-28T06:29:09;102947.25;;;-0.03;73.72
73981;BME280;62348;51.412;5.436;2023-02-28T06:31:35;102950.91;;;-0.04;73.78
73981;BME280;62348;51.412;5.436;2023-02-28T06:34:00;102952.56;;;-0.03;74.03
73981;BME280;62348;51.412;5.436;2023-02-28T06:36:26;102950.03;;;-0.04;73.19
73981;BME280;62348;51.412;5.436;2023-02-28T06:38:51;102958.72;;;-0.02;73.00
73981;BME280;62348;51.412;5.436;2023-02-28T06:41:24;102959.72;;;-0.03;73.04
73981;BME280;62348;51.412;5.436;2023-02-28T06:43:49;102952.44;;;-0.01;72.78
73981;BME280;62348;51.412;5.436;2023-02-28T06:46:15;102946.16;;;0.00;72.37
73981;BME280;62348;51.412;5.436;2023-02-28T06:48:43;102958.19;;;0.04;72.07
73981;BME280;62348;51.412;5.436;2023-02-28T06:51:11;102954.38;;;0.07;71.22
73981;BME280;62348;51.412;5.436;2023-02-28T06:53:38;102961.41;;;0.08;71.23
73981;BME280;62348;51.412;5.436;2023-02-28T06:56:05;102959.28;;;0.11;71.69
73981;BME280;62348;51.412;5.436;2023-02-28T06:58:31;102960.00;;;0.13;70.98
73981;BME280;62348;51.412;5.436;2023-02-28T07:00:56;102964.19;;;0.16;70.81
73981;BME280;62348;51.412;5.436;2023-02-28T07:03:22;102966.59;;;0.19;70.87
73981;BME280;62348;51.412;5.436;2023-02-28T07:05:48;102963.63;;;0.22;69.63
73981;BME280;62348;51.412;5.436;2023-02-28T07:08:13;102968.00;;;0.23;68.78
73981;BME280;62348;51.412;5.436;2023-02-28T07:10:39;102981.13;;;0.25;68.81
73981;BME280;62348;51.412;5.436;2023-02-28T07:13:05;102976.53;;;0.27;68.61
73981;BME280;62348;51.412;5.436;2023-02-28T07:15:31;102980.59;;;0.31;68.49
73981;BME280;62348;51.412;5.436;2023-02-28T07:17:56;102987.31;;;0.35;67.98
73981;BME280;62348;51.412;5.436;2023-02-28T07:20:22;102990.22;;;0.42;67.75
73981;BME280;62348;51.412;5.436;2023-02-28T07:22:48;102991.50;;;0.47;67.11
73981;BME280;62348;51.412;5.436;2023-02-28T07:25:21;102986.59;;;0.52;67.88
73981;BME280;62348;51.412;5.436;2023-02-28T07:27:46;102989.53;;;0.59;67.75
73981;BME280;62348;51.412;5.436;2023-02-28T07:30:12;102993.16;;;0.68;67.24
73981;BME280;62348;51.412;5.436;2023-02-28T07:32:38;102991.75;;;0.73;67.49
73981;BME280;62348;51.412;5.436;2023-02-28T07:35:03;102990.19;;;0.81;66.46
73981;BME280;62348;51.412;5.436;2023-02-28T07:37:29;102989.06;;;0.83;66.80
73981;BME280;62348;51.412;5.436;2023-02-28T07:39:56;102986.53;;;0.91;65.36
73981;BME280;62348;51.412;5.436;2023-02-28T07:42:22;102985.13;;;0.97;64.74
73981;BME280;62348;51.412;5.436;2023-02-28T07:44:48;102988.72;;;1.06;65.10
73981;BME280;62348;51.412;5.436;2023-02-28T07:47:13;102994.31;;;1.12;65.03
73981;BME280;62348;51.412;5.436;2023-02-28T07:49:39;102991.47;;;1.24;65.49
73981;BME280;62348;51.412;5.436;2023-02-28T07:52:05;102988.63;;;1.35;62.78
73981;BME280;62348;51.412;5.436;2023-02-28T07:54:32;102986.59;;;1.47;62.96
73981;BME280;62348;51.412;5.436;2023-02-28T07:56:57;102998.59;;;1.61;62.04
73981;BME280;62348;51.412;5.436;2023-02-28T07:59:23;103000.63;;;1.77;61.89
73981;BME280;62348;51.412;5.436;2023-02-28T08:01:48;103000.56;;;1.86;59.87
73981;BME280;62348;51.412;5.436;2023-02-28T08:04:16;103007.38;;;1.99;60.41
73981;BME280;62348;51.412;5.436;2023-02-28T08:06:41;103004.63;;;2.08;59.73
73981;BME280;62348;51.412;5.436;2023-02-28T08:09:07;103005.41;;;2.19;59.51
73981;BME280;62348;51.412;5.436;2023-02-28T08:11:32;103003.28;;;2.22;57.33
73981;BME280;62348;51.412;5.436;2023-02-28T08:13:58;102998.47;;;2.26;58.09
73981;BME280;62348;51.412;5.436;2023-02-28T08:16:23;103002.34;;;2.31;57.85
73981;BME280;62348;51.412;5.436;2023-02-28T08:18:51;103000.59;;;2.40;58.04
73981;BME280;62348;51.412;5.436;2023-02-28T08:21:17;103000.84;;;2.47;58.63
73981;BME280;62348;51.412;5.436;2023-02-28T08:23:43;103003.19;;;2.50;56.39
73981;BME280;62348;51.412;5.436;2023-02-28T08:26:09;102994.78;;;2.63;57.21
73981;BME280;62348;51.412;5.436;2023-02-28T08:28:34;103003.16;;;2.68;56.37
73981;BME280;62348;51.412;5.436;2023-02-28T08:30:59;102997.19;;;2.74;55.70
73981;BME280;62348;51.412;5.436;2023-02-28T08:33:26;102995.06;;;2.78;54.04
73981;BME280;62348;51.412;5.436;2023-02-28T08:35:56;103002.91;;;2.79;53.01
73981;BME280;62348;51.412;5.436;2023-02-28T08:38:22;103000.94;;;2.81;53.16
73981;BME280;62348;51.412;5.436;2023-02-28T08:40:48;102994.13;;;2.87;53.38
73981;BME280;62348;51.412;5.436;2023-02-28T08:43:13;102995.00;;;2.96;53.60
73981;BME280;62348;51.412;5.436;2023-02-28T08:45:38;102999.03;;;3.00;50.64
73981;BME280;62348;51.412;5.436;2023-02-28T08:48:04;102995.06;;;3.04;52.01
73981;BME280;62348;51.412;5.436;2023-02-28T08:50:29;102990.75;;;3.11;52.65
73981;BME280;62348;51.412;5.436;2023-02-28T08:52:55;102994.97;;;3.22;51.70
73981;BME280;62348;51.412;5.436;2023-02-28T08:55:20;102994.00;;;3.23;49.82
73981;BME280;62348;51.412;5.436;2023-02-28T08:57:45;102988.16;;;3.27;51.19
73981;BME280;62348;51.412;5.436;2023-02-28T09:00:11;102994.03;;;3.31;49.44
73981;BME280;62348;51.412;5.436;2023-02-28T09:02:38;102990.88;;;3.36;49.51
73981;BME280;62348;51.412;5.436;2023-02-28T09:05:04;102996.41;;;3.34;48.84
73981;BME280;62348;51.412;5.436;2023-02-28T09:07:30;102995.22;;;3.37;48.71
73981;BME280;62348;51.412;5.436;2023-02-28T09:09:55;102989.56;;;3.40;49.63
73981;BME280;62348;51.412;5.436;2023-02-28T09:12:24;102997.25;;;3.43;48.29
73981;BME280;62348;51.412;5.436;2023-02-28T09:14:49;102988.25;;;3.44;48.86
73981;BME280;62348;51.412;5.436;2023-02-28T09:17:15;102999.28;;;3.49;47.78
73981;BME280;62348;51.412;5.436;2023-02-28T09:19:40;102993.47;;;3.54;46.97
73981;BME280;62348;51.412;5.436;2023-02-28T09:22:06;102989.28;;;3.51;46.31
73981;BME280;62348;51.412;5.436;2023-02-28T09:24:31;102990.94;;;3.52;46.81
73981;BME280;62348;51.412;5.436;2023-02-28T09:26:57;102989.63;;;3.56;46.75
73981;BME280;62348;51.412;5.436;2023-02-28T09:29:22;102993.84;;;3.59;46.29
73981;BME280;62348;51.412;5.436;2023-02-28T09:31:48;102986.28;;;3.54;45.46
73981;BME280;62348;51.412;5.436;2023-02-28T09:34:13;102992.28;;;3.56;46.48
73981;BME280;62348;51.412;5.436;2023-02-28T09:36:39;102988.28;;;3.52;43.70
73981;BME280;62348;51.412;5.436;2023-02-28T09:39:04;102992.28;;;3.56;44.75
73981;BME280;62348;51.412;5.436;2023-02-28T09:41:37;102990.81;;;3.62;46.21
73981;BME280;62348;51.412;5.436;2023-02-28T09:44:06;102993.84;;;3.67;45.29
73981;BME280;62348;51.412;5.436;2023-02-28T09:46:39;102995.03;;;3.64;44.18
73981;BME280;62348;51.412;5.436;2023-02-28T09:49:18;102996.69;;;3.65;45.39
73981;BME280;62348;51.412;5.436;2023-02-28T09:51:58;102990.66;;;3.63;44.90
73981;BME280;62348;51.412;5.436;2023-02-28T09:54:28;102985.97;;;3.57;44.43
73981;BME280;62348;51.412;5.436;2023-02-28T10:04:53;102981.81;;;3.63;44.17
73981;BME280;62348;51.412;5.436;2023-02-28T10:13:07;102981.31;;;3.67;43.54
73981;BME280;62348;51.412;5.436;2023-02-28T10:15:38;102978.81;;;3.74;42.73
73981;BME280;62348;51.412;5.436;2023-02-28T10:18:06;102970.66;;;3.76;42.24
73981;BME280;62348;51.412;5.436;2023-02-28T10:20:39;102968.63;;;3.78;43.15
73981;BME280;62348;51.412;5.436;2023-02-28T10:25:35;102968.97;;;3.83;42.37
73981;BME280;62348;51.412;5.436;2023-02-28T10:28:15;102966.81;;;3.86;44.37
73981;BME280;62348;51.412;5.436;2023-02-28T10:30:46;102966.97;;;3.85;43.54
73981;BME280;62348;51.412;5.436;2023-02-28T10:33:24;102962.63;;;3.84;43.46
73981;BME280;62348;51.412;5.436;2023-02-28T10:35:50;102955.75;;;3.81;43.20
73981;BME280;62348;51.412;5.436;2023-02-28T10:38:28;102955.94;;;3.80;43.40
73981;BME280;62348;51.412;5.436;2023-02-28T10:41:05;102950.72;;;3.78;43.72
73981;BME280;62348;51.412;5.436;2023-02-28T10:43:31;102954.59;;;3.76;43.13
73981;BME280;62348;51.412;5.436;2023-02-28T10:53:24;102954.91;;;3.81;43.74
73981;BME280;62348;51.412;5.436;2023-02-28T11:03:59;102946.41;;;3.94;42.73
73981;BME280;62348;51.412;5.436;2023-02-28T11:06:30;102941.88;;;3.94;43.06
73981;BME280;62348;51.412;5.436;2023-02-28T11:08:59;102944.56;;;3.94;43.83
73981;BME280;62348;51.412;5.436;2023-02-28T11:11:28;102935.53;;;3.95;42.45
73981;BME280;62348;51.412;5.436;2023-02-28T11:14:03;102932.50;;;3.98;43.97
73981;BME280;62348;51.412;5.436;2023-02-28T11:16:37;102934.88;;;4.01;43.94
73981;BME280;62348;51.412;5.436;2023-02-28T11:19:05;102926.34;;;3.98;42.08
73981;BME280;62348;51.412;5.436;2023-02-28T11:21:34;102939.41;;;4.01;42.99
73981;BME280;62348;51.412;5.436;2023-02-28T11:24:27;102937.38;;;4.03;43.32
73981;BME280;62348;51.412;5.436;2023-02-28T11:26:54;102936.06;;;3.99;42.19
73981;BME280;62348;51.412;5.436;2023-02-28T11:29:33;102931.84;;;3.96;43.06
73981;BME280;62348;51.412;5.436;2023-02-28T11:32:18;102935.03;;;4.00;43.34
73981;BME280;62348;51.412;5.436;2023-02-28T11:34:45;102929.53;;;3.93;41.50
73981;BME280;62348;51.412;5.436;2023-02-28T11:37:18;102929.50;;;3.85;42.74
73981;BME280;62348;51.412;5.436;2023-02-28T11:39:45;102925.16;;;3.84;43.28
73981;BME280;62348;51.412;5.436;2023-02-28T11:44:57;102920.78;;;3.83;42.28
73981;BME280;62348;51.412;5.436;2023-02-28T11:52:46;102903.41;;;3.79;43.10
73981;BME280;62348;51.412;5.436;2023-02-28T12:03:26;102903.59;;;3.85;45.07
73981;BME280;62348;51.412;5.436;2023-02-28T12:05:57;102900.25;;;3.83;44.02
73981;BME280;62348;51.412;5.436;2023-02-28T12:08:47;102911.44;;;3.87;44.14
73981;BME280;62348;51.412;5.436;2023-02-28T12:19:48;102893.38;;;3.89;44.32
73981;BME280;62348;51.412;5.436;2023-02-28T12:27:45;102893.03;;;3.92;43.33
73981;BME280;62348;51.412;5.436;2023-02-28T12:30:22;102892.06;;;3.93;44.40
73981;BME280;62348;51.412;5.436;2023-02-28T12:33:01;102889.53;;;3.91;44.31
73981;BME280;62348;51.412;5.436;2023-02-28T12:35:37;102890.38;;;3.92;44.84
73981;BME280;62348;51.412;5.436;2023-02-28T12:38:10;102886.03;;;3.91;43.68
73981;BME280;62348;51.412;5.436;2023-02-28T12:40:44;102881.34;;;3.93;43.47
73981;BME280;62348;51.412;5.436;2023-02-28T12:43:13;102887.84;;;3.90;43.20
73981;BME280;62348;51.412;5.436;2023-02-28T12:45:46;102878.00;;;3.91;42.82
73981;BME280;62348;51.412;5.436;2023-02-28T12:48:21;102869.97;;;3.91;44.34
73981;BME280;62348;51.412;5.436;2023-02-28T12:50:50;102879.66;;;3.92;44.33
73981;BME280;62348;51.412;5.436;2023-02-28T12:53:33;102872.97;;;3.96;44.25
73981;BME280;62348;51.412;5.436;2023-02-28T12:58:52;102863.44;;;3.94;44.53
73981;BME280;62348;51.412;5.436;2023-02-28T13:04:32;102860.75;;;3.94;43.83
73981;BME280;62348;51.412;5.436;2023-02-28T13:09:56;102850.41;;;3.99;44.07
73981;BME280;62348;51.412;5.436;2023-02-28T13:12:22;102850.56;;;3.97;44.13
73981;BME280;62348;51.412;5.436;2023-02-28T13:14:48;102841.50;;;3.98;43.90
73981;BME280;62348;51.412;5.436;2023-02-28T13:17:20;102846.03;;;3.98;43.32
73981;BME280;62348;51.412;5.436;2023-02-28T13:19:57;102832.31;;;4.01;44.49
73981;BME280;62348;51.412;5.436;2023-02-28T13:22:42;102846.69;;;4.00;44.76
73981;BME280;62348;51.412;5.436;2023-02-28T13:27:46;102839.34;;;4.02;43.89
73981;BME280;62348;51.412;5.436;2023-02-28T13:33:30;102834.66;;;3.96;44.42
73981;BME280;62348;51.412;5.436;2023-02-28T13:39:01;102827.97;;;4.00;44.40
73981;BME280;62348;51.412;5.436;2023-02-28T13:44:15;102817.91;;;4.02;43.83
73981;BME280;62348;51.412;5.436;2023-02-28T13:49:28;102824.63;;;3.98;44.88
73981;BME280;62348;51.412;5.436;2023-02-28T13:58:09;102812.06;;;4.06;44.34
73981;BME280;62348;51.412;5.436;2023-02-28T14:05:34;102817.25;;;4.00;42.97
73981;BME280;62348;51.412;5.436;2023-02-28T14:08:06;102814.75;;;3.98;44.24
73981;BME280;62348;51.412;5.436;2023-02-28T14:10:42;102806.53;;;4.00;45.35
73981;BME280;62348;51.412;5.436;2023-02-28T14:16:00;102808.91;;;4.03;45.21
73981;BME280;62348;51.412;5.436;2023-02-28T14:18:32;102815.75;;;4.05;44.36
73981;BME280;62348;51.412;5.436;2023-02-28T14:21:32;102819.75;;;4.09;44.79
73981;BME280;62348;51.412;5.436;2023-02-28T14:24:32;102810.38;;;4.05;45.19
73981;BME280;62348;51.412;5.436;2023-02-28T14:33:27;102811.06;;;4.07;44.14
73981;BME280;62348;51.412;5.436;2023-02-28T14:38:40;102803.53;;;4.11;44.48
73981;BME280;62348;51.412;5.436;2023-02-28T14:41:16;102807.22;;;4.10;45.10
73981;BME280;62348;51.412;5.436;2023-02-28T14:43:54;102802.53;;;4.12;45.67
73981;BME280;62348;51.412;5.436;2023-02-28T14:46:20;102790.31;;;4.09;44.44
73981;BME280;62348;51.412;5.436;2023-02-28T14:48:47;102797.34;;;4.10;44.76
73981;BME280;62348;51.412;5.436;2023-02-28T14:51:19;102796.69;;;4.08;44.47
73981;BME280;62348;51.412;5.436;2023-02-28T14:53:50;102795.84;;;4.08;45.18
73981;BME280;62348;51.412;5.436;2023-02-28T14:56:21;102791.31;;;4.08;44.90
73981;BME280;62348;51.412;5.436;2023-02-28T14:58:52;102783.63;;;4.05;44.83
73981;BME280;62348;51.412;5.436;2023-02-28T15:01:20;102779.09;;;4.06;45.50
73981;BME280;62348;51.412;5.436;2023-02-28T15:03:47;102786.13;;;4.07;45.38
73981;BME280;62348;51.412;5.436;2023-02-28T15:06:15;102789.63;;;4.07;46.05
73981;BME280;62348;51.412;5.436;2023-02-28T15:08:43;102791.31;;;4.08;45.35
73981;BME280;62348;51.412;5.436;2023-02-28T15:11:13;102789.47;;;4.09;44.96
73981;BME280;62348;51.412;5.436;2023-02-28T15:13:42;102786.13;;;4.07;44.40
73981;BME280;62348;51.412;5.436;2023-02-28T15:16:29;102789.47;;;4.09;45.82
73981;BME280;62348;51.412;5.436;2023-02-28T15:19:01;102788.97;;;4.05;44.29
73981;BME280;62348;51.412;5.436;2023-02-28T15:21:33;102786.66;;;4.02;45.03
73981;BME280;62348;51.412;5.436;2023-02-28T15:26:40;102793.81;;;4.02;44.64
73981;BME280;62348;51.412;5.436;2023-02-28T15:29:15;102792.16;;;4.01;44.92